• Join FlightAware (Why Join?)
  • Login
  • US Flag 
04:20AM EDT


 

Airport Tracker/Info


-or-


 

Live Flight TrackerFlight Track Log ✈ ELY318 ✈ 17-Apr-2012 ✈ EGLL / LHR - LLBG / TLV

Flight Track Log - Related Links

Times and Time Zones

All times are in EDT time to prevent confusion due to time zone crossing. See the ELY318 flight status page for this flight to view local times or setup timezone preferences in your user account.

Time Position Orientation Groundspeed Altitude Reporting Facility
EDT Latitude Longitude Course Direction KTS MPH feet Rate Location/Type
06:24PM 51.4776 -0.5236 266° West 154 177 2,600  Level FlightAware ADS-B
06:24PM 51.4774 -0.5283 258° West 160 184 2,700 660 Climbing FlightAware ADS-B
06:24PM 51.4768 -0.5330 246° West 164 189 2,700  Level FlightAware ADS-B
06:24PM 51.4755 -0.5377 237° Southwest 169 194 2,700 720 Level FlightAware ADS-B
06:24PM 51.4738 -0.5419 228° Southwest 174 200 2,800 840 Climbing FlightAware ADS-B
06:24PM 51.4717 -0.5457 212° Southwest 180 207 2,800  Level FlightAware ADS-B
06:25PM 51.4693 -0.5481 204° Southwest 188 216 2,800  Level FlightAware ADS-B
06:25PM 51.4666 -0.5501 203° Southwest 194 223 2,800 840 Level FlightAware ADS-B
06:25PM 51.4638 -0.5520 188° South 200 230 2,900 840 Climbing FlightAware ADS-B
06:25PM 51.4601 -0.5528 182° South 209 241 2,900  Level FlightAware ADS-B
06:25PM 51.4557 -0.5531 173° South 217 250 2,900 660 Level FlightAware ADS-B
06:25PM 51.4514 -0.5522 165° South 226 260 3,000 1,500 Climbing FlightAware ADS-B
06:25PM 51.4483 -0.5509 161° South 230 265 3,100 960 Climbing FlightAware ADS-B
06:25PM 51.4452 -0.5492 157° South 236 272 3,100 960 Level FlightAware ADS-B
06:25PM 51.4420 -0.5470 151° Southeast 241 277 3,200 1,680 Climbing FlightAware ADS-B
06:25PM 51.4383 -0.5436 150° Southeast 245 282 3,300 1,500 Climbing FlightAware ADS-B
06:25PM 51.4343 -0.5399 148° Southeast 251 289 3,400 1,500 Climbing FlightAware ADS-B
06:25PM 51.4303 -0.5358 144° Southeast 255 293 3,500 1,320 Climbing FlightAware ADS-B
06:25PM 51.4256 -0.5302 142° Southeast 260 299 3,600 1,500 Climbing FlightAware ADS-B
06:25PM 51.4227 -0.5267 140° Southeast 262 302 3,700 2,520 Climbing FlightAware ADS-B
06:25PM 51.4191 -0.5219 141° Southeast 264 304 3,900 2,520 Climbing FlightAware ADS-B
06:25PM 51.4162 -0.5181 144° Southeast 265 305 4,000 3,000 Climbing FlightAware ADS-B
06:25PM 51.4129 -0.5142 138° Southeast 266 306 4,200 3,000 Climbing FlightAware ADS-B
06:26PM 51.4102 -0.5103 135° Southeast 266 306 4,300 2,520 Climbing FlightAware ADS-B
06:26PM 51.4070 -0.5051 138° Southeast 268 308 4,500 3,300 Climbing FlightAware ADS-B
06:26PM 51.4015 -0.4971 138° Southeast 269 310 4,800 2,760 Climbing FlightAware ADS-B
06:26PM 51.3931 -0.4849 137° Southeast 269 310 5,200 2,520 Climbing FlightAware ADS-B
06:26PM 51.3895 -0.4795 139° Southeast 270 311 5,400 2,640 Climbing FlightAware ADS-B
06:26PM 51.3845 -0.4726 136° Southeast 271 312 5,600 2,760 Climbing FlightAware ADS-B
06:26PM 51.3774 -0.4616 138° Southeast 271 312 6,000 2,760 Climbing FlightAware ADS-B
06:26PM 51.3709 -0.4520 138° Southeast 272 313 6,300 2,400 Climbing FlightAware ADS-B
06:26PM 51.3680 -0.4478 130° Southeast 274 315 6,400 2,520 Climbing FlightAware ADS-B
06:26PM 51.3647 -0.4416 121° Southeast 278 320 6,600 2,640 Climbing FlightAware ADS-B
06:26PM 51.3614 -0.4329 118° Southeast 283 326 6,800 3,000 Climbing FlightAware ADS-B
06:27PM 51.3590 -0.4256 116° Southeast 285 328 7,000 2,700 Climbing FlightAware ADS-B
06:27PM 51.3549 -0.4119 112° Southeast 287 330 7,300 2,400 Climbing FlightAware ADS-B
06:27PM 51.3515 -0.3981 107° East 291 335 7,600 2,460 Climbing FlightAware ADS-B
06:27PM 51.3496 -0.3879 100° East 293 337 7,800 2,700 Climbing FlightAware ADS-B
06:27PM 51.3482 -0.3749 98° East 296 341 8,100 2,700 Climbing FlightAware ADS-B
06:27PM 51.3451 -0.3401 97° East 299 344 8,800 2,580 Climbing FlightAware ADS-B
06:27PM 51.3424 -0.3051 96° East 300 345 9,500 2,160 Climbing FlightAware ADS-B
06:28PM 51.3377 -0.2379 96° East 314 361 10,500 1,500 Climbing FlightAware ADS-B
06:28PM 51.3327 -0.1652 96° East 346 398 11,000 960 Climbing FlightAware ADS-B
06:29PM 51.3271 -0.0828 97° East 374 430 11,500 1,440 Climbing FlightAware ADS-B
06:29PM 51.3209 0.0018 97° East 389 448 12,500 2,160 Climbing FlightAware ADS-B
06:30PM 51.3143 0.0911 97° East 396 456 13,700 2,400 Climbing FlightAware ADS-B
06:31PM 51.3074 0.1817 97° East 403 464 15,000 2,340 Climbing FlightAware ADS-B
06:31PM 51.3005 0.2740 97° East 409 471 16,200 2,280 Climbing FlightAware ADS-B
06:32PM 51.2930 0.3709 97° East 417 480 17,400 2,280 Climbing FlightAware ADS-B
06:32PM 51.2857 0.4664 97° East 423 487 18,600 2,280 Climbing FlightAware ADS-B
06:33PM 51.2778 0.5694 97° East 430 495 19,800 2,040 Climbing FlightAware ADS-B
06:33PM 51.2700 0.6647 97° East 436 502 20,800 1,860 Climbing FlightAware ADS-B
06:34PM 51.2618 0.7679 97° East 447 514 21,800 1,920 Climbing FlightAware ADS-B
06:34PM 51.2538 0.8667 97° East 454 522 22,800 1,860 Climbing FlightAware ADS-B
06:35PM 51.2455 0.9704 98° East 462 532 23,700 1,740 Climbing FlightAware ADS-B
06:35PM 51.2369 1.0725 98° East 468 539 24,600 1,860 Climbing FlightAware ADS-B
06:36PM 51.2283 1.1757 98° East 473 544 25,600 1,800 Climbing FlightAware ADS-B
06:36PM 51.2193 1.2833 98° East 479 551 26,400 1,620 Climbing FlightAware ADS-B
06:37PM 51.2077 1.4169 100° East 485 558 27,500 1,620 Climbing FlightAware ADS-B
06:37PM 51.2015 1.4730 105° East 485 558 27,900 1,680 Climbing FlightAware ADS-B
06:37PM 51.1872 1.5553 110° East 483 556 28,600 1,560 Climbing FlightAware ADS-B
06:38PM 51.1733 1.6151 114° Southeast 483 556 29,000 1,500 Climbing FlightAware ADS-B
06:38PM 51.1461 1.7128 114° Southeast 485 558 29,800 1,560 Climbing FlightAware ADS-B
06:39PM 51.1183 1.8111 114° Southeast 490 564 30,600 1,440 Climbing FlightAware ADS-B
06:39PM 51.0900 1.9100 114° Southeast 495 570 31,300 1,320 Climbing FlightAware ADS-B
06:40PM 51.0610 2.0134 114° Southeast 499 574 32,000 1,440 Climbing FlightAware ADS-B
06:40PM 51.0320 2.1167 114° Southeast 499 574 32,800 1,680 Climbing FlightAware ADS-B
06:41PM 51.0033 2.2167 115° Southeast 499 574 33,700 1,500 Climbing FlightAware ADS-B
06:41PM 50.9716 2.3229 114° Southeast 501 577 34,400 1,260 Climbing FlightAware ADS-B
06:42PM 50.9419 2.4263 115° Southeast 502 578 35,100 1,320 Climbing FlightAware ADS-B
06:42PM 50.9127 2.5263 114° Southeast 502 578 35,800 1,320 Climbing FlightAware ADS-B
06:43PM 50.8752 2.6601 116° Southeast 500 575 36,700 1,320 Climbing FlightAware ADS-B
06:51PM 50.5099 3.8114 117° Southeast  Level Estimated
06:52PM 50.4616 3.9595 117° Southeast  Level Estimated
06:53PM 50.4131 4.1075 117° Southeast  Level Estimated
06:54PM 50.3645 4.2551 117° Southeast  Level Estimated
06:55PM 50.3156 4.4023 118° Southeast  Level Estimated
06:56PM 50.2666 4.5493 118° Southeast  Level Estimated
06:57PM 50.2174 4.6960 118° Southeast  Level Estimated
06:58PM 50.1680 4.8424 118° Southeast  Level Estimated
06:59PM 50.1051 5.0278 118° Southeast  Level Estimated
07:00PM 50.0418 5.2126 118° Southeast  Level Estimated
07:01PM 49.9783 5.3970 118° Southeast  Level Estimated
07:02PM 49.9145 5.5809 118° Southeast  Level Estimated
07:03PM 49.8503 5.7643 119° Southeast  Level Estimated
07:04PM 49.7859 5.9472 119° Southeast  Level Estimated
07:05PM 49.7212 6.1297 119° Southeast  Level Estimated
07:06PM 49.6562 6.3116 119° Southeast  Level Estimated
07:07PM 49.5910 6.4931 119° Southeast  Level Estimated
07:08PM 49.5254 6.6741 119° Southeast  Level Estimated
07:09PM 49.4596 6.8546 119° Southeast  Level Estimated
07:10PM 49.3935 7.0346 120° Southeast  Level Estimated
07:11PM 49.3271 7.2141 120° Southeast  Level Estimated
07:12PM 49.2604 7.3931 120° Southeast  Level Estimated
07:13PM 49.1935 7.5717 120° Southeast  Level Estimated
07:14PM 49.1263 7.7498 120° Southeast  Level Estimated
07:15PM 49.0588 7.9274 120° Southeast  Level Estimated
07:16PM 48.9910 8.1045 120° Southeast  Level Estimated
07:17PM 48.9230 8.2811 120° Southeast  Level Estimated
07:18PM 48.8547 8.4572 121° Southeast  Level Estimated
07:19PM 48.7861 8.6329 121° Southeast  Level Estimated
07:20PM 48.7173 8.8081 121° Southeast  Level Estimated
07:21PM 48.6482 8.9827 121° Southeast  Level Estimated
07:22PM 48.5788 9.1570 121° Southeast  Level Estimated
07:23PM 48.5092 9.3307 121° Southeast  Level Estimated
07:24PM 48.4393 9.5040 121° Southeast  Level Estimated
07:25PM 48.3691 9.6768 122° Southeast  Level Estimated
07:26PM 48.2987 9.8491 122° Southeast  Level Estimated
07:27PM 48.2281 10.0209 122° Southeast  Level Estimated
07:28PM 48.1572 10.1923 122° Southeast  Level Estimated
07:29PM 48.0860 10.3632 122° Southeast  Level Estimated
07:30PM 48.0146 10.5336 122° Southeast  Level Estimated
07:31PM 47.9429 10.7035 122° Southeast  Level Estimated
07:32PM 47.8710 10.8730 122° Southeast  Level Estimated
07:33PM 47.7988 11.0420 123° Southeast  Level Estimated
07:34PM 47.7264 11.2105 123° Southeast  Level Estimated
07:35PM 47.6537 11.3786 123° Southeast  Level Estimated
07:36PM 47.5808 11.5462 123° Southeast  Level Estimated
07:37PM 47.5076 11.7133 123° Southeast  Level Estimated
07:38PM 47.4342 11.8799 123° Southeast  Level Estimated
07:39PM 47.3606 12.0462 123° Southeast  Level Estimated
07:40PM 47.2867 12.2119 123° Southeast  Level Estimated
07:41PM 47.2126 12.3771 124° Southeast  Level Estimated
07:42PM 47.1383 12.5420 124° Southeast  Level Estimated
07:43PM 47.0637 12.7063 124° Southeast  Level Estimated
07:44PM 46.9888 12.8702 124° Southeast  Level Estimated
07:45PM 46.9138 13.0336 124° Southeast  Level Estimated
07:46PM 46.8385 13.1966 124° Southeast  Level Estimated
07:47PM 46.7630 13.3591 124° Southeast  Level Estimated
07:48PM 46.6872 13.5212 124° Southeast  Level Estimated
07:49PM 46.6113 13.6828 124° Southeast  Level Estimated
07:50PM 46.5350 13.8439 125° Southeast  Level Estimated
07:51PM 46.4586 14.0046 125° Southeast  Level Estimated
07:52PM 46.3820 14.1649 125° Southeast  Level Estimated
07:53PM 46.3051 14.3246 125° Southeast  Level Estimated
07:54PM 46.2280 14.4840 125° Southeast  Level Estimated
07:55PM 46.1507 14.6429 125° Southeast  Level Estimated
07:56PM 46.0731 14.8013 125° Southeast  Level Estimated
07:57PM 45.9954 14.9594 125° Southeast  Level Estimated
07:58PM 45.9174 15.1169 126° Southeast  Level Estimated
07:59PM 45.8392 15.2740 126° Southeast  Level Estimated
08:00PM 45.7608 15.4307 126° Southeast  Level Estimated
08:01PM 45.6822 15.5870 126° Southeast  Level Estimated
08:02PM 45.6034 15.7428 126° Southeast  Level Estimated
08:03PM 45.5243 15.8981 126° Southeast  Level Estimated
08:04PM 45.4451 16.0530 126° Southeast  Level Estimated
08:05PM 45.3656 16.2075 126° Southeast  Level Estimated
08:06PM 45.2859 16.3616 126° Southeast  Level Estimated
08:07PM 45.2061 16.5152 126° Southeast  Level Estimated
08:08PM 45.1260 16.6684 127° Southeast  Level Estimated
08:09PM 45.0457 16.8211 127° Southeast  Level Estimated
08:10PM 44.9652 16.9735 127° Southeast  Level Estimated
08:11PM 44.8845 17.1254 127° Southeast  Level Estimated
08:12PM 44.8036 17.2769 127° Southeast  Level Estimated
08:13PM 44.7225 17.4279 127° Southeast  Level Estimated
08:14PM 44.6413 17.5786 127° Southeast  Level Estimated
08:15PM 44.5598 17.7288 127° Southeast  Level Estimated
08:16PM 44.4781 17.8786 127° Southeast  Level Estimated
08:17PM 44.3962 18.0279 128° Southeast  Level Estimated
08:18PM 44.3141 18.1769 128° Southeast  Level Estimated
08:19PM 44.2319 18.3254 128° Southeast  Level Estimated
08:20PM 44.1494 18.4735 128° Southeast  Level Estimated
08:21PM 44.0668 18.6212 128° Southeast  Level Estimated
08:22PM 43.9839 18.7685 128° Southeast  Level Estimated
08:23PM 43.9009 18.9154 128° Southeast  Level Estimated
08:24PM 43.8177 19.0619 128° Southeast  Level Estimated
08:25PM 43.7343 19.2080 128° Southeast  Level Estimated
08:26PM 43.6507 19.3536 128° Southeast  Level Estimated
08:27PM 43.5670 19.4989 129° Southeast  Level Estimated
08:28PM 43.4830 19.6437 129° Southeast  Level Estimated
08:29PM 43.3989 19.7882 129° Southeast  Level Estimated
08:30PM 43.3145 19.9322 129° Southeast  Level Estimated
08:31PM 43.2300 20.0759 129° Southeast  Level Estimated
08:32PM 43.1454 20.2191 129° Southeast  Level Estimated
08:33PM 43.0605 20.3620 129° Southeast  Level Estimated
08:34PM 42.9755 20.5044 129° Southeast  Level Estimated
08:35PM 42.8903 20.6465 129° Southeast  Level Estimated
08:36PM 42.8049 20.7882 129° Southeast  Level Estimated
08:37PM 42.7193 20.9294 130° Southeast  Level Estimated
08:38PM 42.6336 21.0703 130° Southeast  Level Estimated
08:39PM 42.5477 21.2108 130° Southeast  Level Estimated
08:40PM 42.4616 21.3509 130° Southeast  Level Estimated
08:41PM 42.3754 21.4907 130° Southeast  Level Estimated
08:42PM 42.2890 21.6300 130° Southeast  Level Estimated
08:43PM 42.2024 21.7690 130° Southeast  Level Estimated
08:44PM 42.1157 21.9076 130° Southeast  Level Estimated
08:45PM 42.0288 22.0457 130° Southeast  Level Estimated
08:46PM 41.9417 22.1836 130° Southeast  Level Estimated
08:47PM 41.8544 22.3210 131° Southeast  Level Estimated
08:48PM 41.7670 22.4581 131° Southeast  Level Estimated
08:49PM 41.6795 22.5948 131° Southeast  Level Estimated
08:50PM 41.5917 22.7311 131° Southeast  Level Estimated
08:51PM 41.5038 22.8671 131° Southeast  Level Estimated
08:52PM 41.4158 23.0027 131° Southeast  Level Estimated
08:53PM 41.3276 23.1379 131° Southeast  Level Estimated
08:54PM 41.2392 23.2728 131° Southeast  Level Estimated
08:55PM 41.1507 23.4072 131° Southeast  Level Estimated
08:56PM 41.0620 23.5414 131° Southeast  Level Estimated
08:57PM 40.9732 23.6751 131° Southeast  Level Estimated
08:58PM 40.8842 23.8086 131° Southeast  Level Estimated
08:59PM 40.7950 23.9416 132° Southeast  Level Estimated
09:00PM 40.7057 24.0743 132° Southeast  Level Estimated
09:01PM 40.6163 24.2066 132° Southeast  Level Estimated
09:02PM 40.5267 24.3386 132° Southeast  Level Estimated
09:03PM 40.4369 24.4702 132° Southeast  Level Estimated
09:04PM 40.3470 24.6015 132° Southeast  Level Estimated
09:05PM 40.2570 24.7325 132° Southeast  Level Estimated
09:06PM 40.1668 24.8630 132° Southeast  Level Estimated
09:07PM 40.0765 24.9933 132° Southeast  Level Estimated
09:08PM 39.9860 25.1232 132° Southeast  Level Estimated
09:09PM 39.8954 25.2527 132° Southeast  Level Estimated
09:10PM 39.8046 25.3819 133° Southeast  Level Estimated
09:11PM 39.7137 25.5108 133° Southeast  Level Estimated
09:12PM 39.6226 25.6393 133° Southeast  Level Estimated
09:13PM 39.5314 25.7675 133° Southeast  Level Estimated
09:14PM 39.4401 25.8953 133° Southeast  Level Estimated
09:15PM 39.3486 26.0228 133° Southeast  Level Estimated
09:16PM 39.2570 26.1500 133° Southeast  Level Estimated
09:17PM 39.1652 26.2768 133° Southeast  Level Estimated
09:18PM 39.0733 26.4034 133° Southeast  Level Estimated
09:19PM 38.9813 26.5296 133° Southeast  Level Estimated
09:20PM 38.8891 26.6554 133° Southeast  Level Estimated
09:21PM 38.7968 26.7809 133° Southeast  Level Estimated
09:22PM 38.7044 26.9062 133° Southeast  Level Estimated
09:23PM 38.6118 27.0310 134° Southeast  Level Estimated
09:24PM 38.5191 27.1556 134° Southeast  Level Estimated
09:25PM 38.4263 27.2798 134° Southeast  Level Estimated
09:26PM 38.3333 27.4037 134° Southeast  Level Estimated
09:27PM 38.2402 27.5273 134° Southeast  Level Estimated
09:28PM 38.1470 27.6506 134° Southeast  Level Estimated
09:29PM 38.0537 27.7736 134° Southeast  Level Estimated
09:30PM 37.9602 27.8963 134° Southeast  Level Estimated
09:31PM 37.8666 28.0186 134° Southeast  Level Estimated
09:32PM 37.7729 28.1407 134° Southeast  Level Estimated
09:33PM 37.6790 28.2624 134° Southeast  Level Estimated
09:34PM 37.5850 28.3838 134° Southeast  Level Estimated
09:35PM 37.4909 28.5049 134° Southeast  Level Estimated
09:36PM 37.3967 28.6257 135° Southeast  Level Estimated
09:37PM 37.3023 28.7462 135° Southeast  Level Estimated
09:38PM 37.2079 28.8664 135° Southeast  Level Estimated
09:39PM 37.1133 28.9863 135° Southeast  Level Estimated
09:40PM 37.0186 29.1059 135° Southeast  Level Estimated
09:41PM 36.9237 29.2252 135° Southeast  Level Estimated
09:42PM 36.8288 29.3442 135° Southeast  Level Estimated
09:43PM 36.7337 29.4629 135° Southeast  Level Estimated
09:44PM 36.6385 29.5814 135° Southeast  Level Estimated
09:45PM 36.5432 29.6995 135° Southeast  Level Estimated
09:46PM 36.4478 29.8173 135° Southeast  Level Estimated
09:47PM 36.3523 29.9349 135° Southeast  Level Estimated
09:48PM 36.2566 30.0521 135° Southeast  Level Estimated
09:49PM 36.1609 30.1691 135° Southeast  Level Estimated
09:50PM 36.0650 30.2858 136° Southeast  Level Estimated
09:51PM 35.9690 30.4022 136° Southeast  Level Estimated
09:52PM 35.8729 30.5183 136° Southeast  Level Estimated
09:53PM 35.7767 30.6341 136° Southeast  Level Estimated
09:54PM 35.6803 30.7497 136° Southeast  Level Estimated
09:55PM 35.5839 30.8650 136° Southeast  Level Estimated
09:56PM 35.4873 30.9800 136° Southeast  Level Estimated
09:57PM 35.3907 31.0947 136° Southeast  Level Estimated
09:58PM 35.2939 31.2091 136° Southeast  Level Estimated
09:59PM 35.1970 31.3233 136° Southeast  Level Estimated
10:00PM 35.1001 31.4372 136° Southeast  Level Estimated
10:01PM 35.0030 31.5508 136° Southeast  Level Estimated
10:02PM 34.9058 31.6642 136° Southeast  Level Estimated
10:03PM 34.8085 31.7773 136° Southeast  Level Estimated
10:04PM 34.7111 31.8901 136° Southeast  Level Estimated
10:05PM 34.6136 32.0027 137° Southeast  Level Estimated
10:06PM 34.5160 32.1150 137° Southeast  Level Estimated
10:07PM 34.4183 32.2270 137° Southeast  Level Estimated
10:08PM 34.3205 32.3388 137° Southeast  Level Estimated
10:09PM 34.2226 32.4503 137° Southeast  Level Estimated
10:10PM 34.1246 32.5616 137° Southeast  Level Estimated
10:11PM 34.0265 32.6726 137° Southeast  Level Estimated
10:12PM 33.9282 32.7833 137° Southeast  Level Estimated
10:13PM 33.8299 32.8938 137° Southeast  Level Estimated
10:14PM 33.7315 33.0040 137° Southeast  Level Estimated
10:15PM 33.6330 33.1140 137° Southeast  Level Estimated
10:16PM 33.5344 33.2237 137° Southeast  Level Estimated
10:17PM 33.4357 33.3332 137° Southeast  Level Estimated
10:18PM 33.3369 33.4424 137° Southeast  Level Estimated
10:19PM 33.2380 33.5514 137° Southeast  Level Estimated
10:20PM 33.1390 33.6601 137° Southeast  Level Estimated
10:21PM 33.0400 33.7686 137° Southeast  Level Estimated
10:22PM 32.9408 33.8769 138° Southeast  Level Estimated
10:23PM 32.8415 33.9849 138° Southeast  Level Estimated
10:24PM 32.7421 34.0926 138° Southeast  Level Estimated
10:25PM 32.6427 34.2001 138° Southeast  Level Estimated
10:26PM 32.5432 34.3074 138° Southeast  Level Estimated
10:27PM 32.4435 34.4145 138° Southeast  Level Estimated
10:28PM 32.3438 34.5213 138° Southeast  Level Estimated
10:29PM 32.2440 34.6278 138° Southeast  Level Estimated
10:30PM 32.1441 34.7342 138° Southeast  Level Estimated
10:31PM 32.0441 34.8403 138° Southeast  Level Estimated
10:32PM 31.9440 34.9461 318° Northwest  Level Estimated
10:33PM 32.0441 34.8403 138° Southeast  Level Estimated
10:34PM 31.9440 34.9461 318° Northwest  Level Estimated
10:35PM 32.0441 34.8403 138° Southeast  Level Estimated
10:36PM 31.9440 34.9461 318° Northwest  Level Estimated
10:37PM 32.0441 34.8403 138° Southeast  Level Estimated
10:38PM 31.9440 34.9461 138° Southeast  Level Estimated